sensor_id;sensor_type;location;lat;lon;timestamp;pressure;altitude;pressure_sealevel;temperature;humidity
54882;BME280;40775;51.448;4.742;2023-04-05T00:00:26;102388.72;;;5.64;100.00
54882;BME280;40775;51.448;4.742;2023-04-05T00:02:57;102388.81;;;5.66;100.00
54882;BME280;40775;51.448;4.742;2023-04-05T00:05:27;102387.72;;;5.62;100.00
54882;BME280;40775;51.448;4.742;2023-04-05T00:08:01;102378.81;;;5.58;100.00
54882;BME280;40775;51.448;4.742;2023-04-05T00:10:30;102387.16;;;5.53;100.00
54882;BME280;40775;51.448;4.742;2023-04-05T00:12:57;102390.13;;;5.46;100.00
54882;BME280;40775;51.448;4.742;2023-04-05T00:15:28;102396.13;;;5.32;100.00
54882;BME280;40775;51.448;4.742;2023-04-05T00:17:55;102395.13;;;5.30;100.00
54882;BME280;40775;51.448;4.742;2023-04-05T00:20:23;102384.31;;;5.23;100.00
54882;BME280;40775;51.448;4.742;2023-04-05T00:22:50;102392.72;;;5.19;100.00
54882;BME280;40775;51.448;4.742;2023-04-05T00:25:17;102388.09;;;5.15;100.00
54882;BME280;40775;51.448;4.742;2023-04-05T00:27:45;102386.91;;;5.10;100.00
54882;BME280;40775;51.448;4.742;2023-04-05T00:30:12;102396.00;;;5.04;100.00
54882;BME280;40775;51.448;4.742;2023-04-05T00:32:49;102392.78;;;4.94;100.00
54882;BME280;40775;51.448;4.742;2023-04-05T00:35:17;102391.66;;;4.91;100.00
54882;BME280;40775;51.448;4.742;2023-04-05T00:37:44;102391.25;;;4.85;100.00
54882;BME280;40775;51.448;4.742;2023-04-05T00:40:11;102383.94;;;4.79;100.00
54882;BME280;40775;51.448;4.742;2023-04-05T00:42:38;102379.84;;;4.83;100.00
54882;BME280;40775;51.448;4.742;2023-04-05T00:45:06;102385.41;;;4.76;100.00
54882;BME280;40775;51.448;4.742;2023-04-05T00:47:33;102382.03;;;4.77;100.00
54882;BME280;40775;51.448;4.742;2023-04-05T00:50:00;102380.50;;;4.67;100.00
54882;BME280;40775;51.448;4.742;2023-04-05T00:52:28;102384.81;;;4.67;100.00
54882;BME280;40775;51.448;4.742;2023-04-05T00:54:57;102381.06;;;4.63;100.00
54882;BME280;40775;51.448;4.742;2023-04-05T00:57:24;102385.94;;;4.58;100.00
54882;BME280;40775;51.448;4.742;2023-04-05T00:59:52;102375.44;;;4.57;100.00
54882;BME280;40775;51.448;4.742;2023-04-05T01:02:31;102381.34;;;4.54;100.00
54882;BME280;40775;51.448;4.742;2023-04-05T01:05:07;102375.94;;;4.51;100.00
54882;BME280;40775;51.448;4.742;2023-04-05T01:10:36;102369.94;;;4.52;100.00
54882;BME280;40775;51.448;4.742;2023-04-05T01:13:05;102375.13;;;4.52;100.00
54882;BME280;40775;51.448;4.742;2023-04-05T01:15:32;102369.41;;;4.45;100.00
54882;BME280;40775;51.448;4.742;2023-04-05T01:17:59;102377.44;;;4.36;100.00
54882;BME280;40775;51.448;4.742;2023-04-05T01:20:33;102364.72;;;4.27;100.00
54882;BME280;40775;51.448;4.742;2023-04-05T01:26:39;102369.50;;;4.21;100.00
54882;BME280;40775;51.448;4.742;2023-04-05T01:32:17;102367.28;;;4.14;100.00
54882;BME280;40775;51.448;4.742;2023-04-05T01:38:02;102365.13;;;4.09;100.00
54882;BME280;40775;51.448;4.742;2023-04-05T01:40:30;102356.22;;;4.05;100.00
54882;BME280;40775;51.448;4.742;2023-04-05T01:43:00;102353.41;;;4.02;100.00
54882;BME280;40775;51.448;4.742;2023-04-05T01:45:28;102353.81;;;4.08;100.00
54882;BME280;40775;51.448;4.742;2023-04-05T01:47:55;102354.50;;;4.06;100.00
54882;BME280;40775;51.448;4.742;2023-04-05T01:50:22;102349.78;;;4.00;100.00
54882;BME280;40775;51.448;4.742;2023-04-05T01:52:49;102347.78;;;3.96;100.00
54882;BME280;40775;51.448;4.742;2023-04-05T01:55:16;102341.56;;;3.94;100.00
54882;BME280;40775;51.448;4.742;2023-04-05T01:57:43;102336.38;;;3.82;100.00
54882;BME280;40775;51.448;4.742;2023-04-05T02:00:11;102333.34;;;3.76;100.00
54882;BME280;40775;51.448;4.742;2023-04-05T02:02:39;102332.34;;;3.74;100.00
54882;BME280;40775;51.448;4.742;2023-04-05T02:05:07;102332.38;;;3.62;100.00
54882;BME280;40775;51.448;4.742;2023-04-05T02:07:34;102324.81;;;3.65;100.00
54882;BME280;40775;51.448;4.742;2023-04-05T02:10:01;102332.16;;;3.59;100.00
54882;BME280;40775;51.448;4.742;2023-04-05T02:12:28;102322.91;;;3.63;100.00
54882;BME280;40775;51.448;4.742;2023-04-05T02:14:56;102322.47;;;3.57;100.00
54882;BME280;40775;51.448;4.742;2023-04-05T02:17:24;102319.41;;;3.62;100.00
54882;BME280;40775;51.448;4.742;2023-04-05T02:19:51;102323.22;;;3.56;100.00
54882;BME280;40775;51.448;4.742;2023-04-05T02:22:19;102313.31;;;3.50;100.00
54882;BME280;40775;51.448;4.742;2023-04-05T02:24:47;102312.06;;;3.45;100.00
54882;BME280;40775;51.448;4.742;2023-04-05T02:27:14;102314.34;;;3.40;100.00
54882;BME280;40775;51.448;4.742;2023-04-05T02:29:40;102307.13;;;3.36;100.00
54882;BME280;40775;51.448;4.742;2023-04-05T02:32:08;102314.13;;;3.37;100.00
54882;BME280;40775;51.448;4.742;2023-04-05T02:34:35;102306.13;;;3.34;100.00
54882;BME280;40775;51.448;4.742;2023-04-05T02:37:04;102305.91;;;3.31;100.00
54882;BME280;40775;51.448;4.742;2023-04-05T02:39:31;102301.25;;;3.27;100.00
54882;BME280;40775;51.448;4.742;2023-04-05T02:41:58;102309.81;;;3.26;100.00
54882;BME280;40775;51.448;4.742;2023-04-05T02:44:25;102312.41;;;3.26;100.00
54882;BME280;40775;51.448;4.742;2023-04-05T02:46:52;102314.25;;;3.16;100.00
54882;BME280;40775;51.448;4.742;2023-04-05T02:49:19;102308.94;;;3.14;100.00
54882;BME280;40775;51.448;4.742;2023-04-05T02:51:46;102305.56;;;3.15;100.00
54882;BME280;40775;51.448;4.742;2023-04-05T02:54:13;102302.53;;;3.09;100.00
54882;BME280;40775;51.448;4.742;2023-04-05T02:56:40;102299.03;;;3.08;100.00
54882;BME280;40775;51.448;4.742;2023-04-05T02:59:08;102302.41;;;3.07;100.00
54882;BME280;40775;51.448;4.742;2023-04-05T03:01:35;102296.31;;;3.07;100.00
54882;BME280;40775;51.448;4.742;2023-04-05T03:04:02;102302.19;;;3.04;100.00
54882;BME280;40775;51.448;4.742;2023-04-05T03:06:29;102296.88;;;3.03;100.00
54882;BME280;40775;51.448;4.742;2023-04-05T03:08:57;102283.91;;;3.03;100.00
54882;BME280;40775;51.448;4.742;2023-04-05T03:11:24;102289.19;;;2.93;100.00
54882;BME280;40775;51.448;4.742;2023-04-05T03:13:51;102279.84;;;2.95;100.00
54882;BME280;40775;51.448;4.742;2023-04-05T03:16:18;102282.44;;;2.95;100.00
54882;BME280;40775;51.448;4.742;2023-04-05T03:18:46;102288.28;;;2.92;100.00
54882;BME280;40775;51.448;4.742;2023-04-05T03:21:13;102284.00;;;2.93;100.00
54882;BME280;40775;51.448;4.742;2023-04-05T03:23:44;102289.53;;;2.86;100.00
54882;BME280;40775;51.448;4.742;2023-04-05T03:26:14;102282.31;;;2.82;100.00
54882;BME280;40775;51.448;4.742;2023-04-05T03:28:41;102284.69;;;2.78;100.00
54882;BME280;40775;51.448;4.742;2023-04-05T03:31:11;102280.75;;;2.84;100.00
54882;BME280;40775;51.448;4.742;2023-04-05T03:33:38;102279.41;;;2.77;100.00
54882;BME280;40775;51.448;4.742;2023-04-05T03:36:05;102296.88;;;2.79;100.00
54882;BME280;40775;51.448;4.742;2023-04-05T03:38:33;102283.69;;;2.76;100.00
54882;BME280;40775;51.448;4.742;2023-04-05T03:41:01;102280.28;;;2.77;100.00
54882;BME280;40775;51.448;4.742;2023-04-05T03:43:28;102285.72;;;2.81;100.00
54882;BME280;40775;51.448;4.742;2023-04-05T03:45:55;102280.63;;;2.82;100.00
54882;BME280;40775;51.448;4.742;2023-04-05T03:48:22;102278.59;;;2.78;100.00
54882;BME280;40775;51.448;4.742;2023-04-05T03:50:49;102280.72;;;2.72;100.00
54882;BME280;40775;51.448;4.742;2023-04-05T03:53:16;102278.47;;;2.65;100.00
54882;BME280;40775;51.448;4.742;2023-04-05T03:55:44;102275.44;;;2.82;100.00
54882;BME280;40775;51.448;4.742;2023-04-05T03:58:16;102274.41;;;2.68;100.00
54882;BME280;40775;51.448;4.742;2023-04-05T04:00:43;102283.97;;;2.69;100.00
54882;BME280;40775;51.448;4.742;2023-04-05T04:03:10;102279.81;;;2.71;100.00
54882;BME280;40775;51.448;4.742;2023-04-05T04:05:37;102278.56;;;2.66;100.00
54882;BME280;40775;51.448;4.742;2023-04-05T04:08:05;102272.72;;;2.69;100.00
54882;BME280;40775;51.448;4.742;2023-04-05T04:10:33;102283.56;;;2.75;100.00
54882;BME280;40775;51.448;4.742;2023-04-05T04:13:01;102273.63;;;2.69;100.00
54882;BME280;40775;51.448;4.742;2023-04-05T04:15:28;102273.38;;;2.66;100.00
54882;BME280;40775;51.448;4.742;2023-04-05T04:17:55;102269.00;;;2.65;100.00
54882;BME280;40775;51.448;4.742;2023-04-05T04:20:22;102269.00;;;2.65;100.00
54882;BME280;40775;51.448;4.742;2023-04-05T04:22:49;102268.53;;;2.59;100.00
54882;BME280;40775;51.448;4.742;2023-04-05T04:25:19;102270.78;;;2.66;100.00
54882;BME280;40775;51.448;4.742;2023-04-05T04:27:47;102278.56;;;2.66;100.00
54882;BME280;40775;51.448;4.742;2023-04-05T04:30:16;102272.94;;;2.60;100.00
54882;BME280;40775;51.448;4.742;2023-04-05T04:32:43;102280.16;;;2.53;100.00
54882;BME280;40775;51.448;4.742;2023-04-05T04:35:28;102271.47;;;2.52;100.00
54882;BME280;40775;51.448;4.742;2023-04-05T04:38:02;102270.00;;;2.56;100.00
54882;BME280;40775;51.448;4.742;2023-04-05T04:40:37;102269.53;;;2.50;100.00
54882;BME280;40775;51.448;4.742;2023-04-05T04:43:10;102266.47;;;2.43;100.00
54882;BME280;40775;51.448;4.742;2023-04-05T04:45:47;102261.06;;;2.40;100.00
54882;BME280;40775;51.448;4.742;2023-04-05T04:48:15;102269.53;;;2.50;100.00
54882;BME280;40775;51.448;4.742;2023-04-05T04:50:44;102254.97;;;2.40;100.00
54882;BME280;40775;51.448;4.742;2023-04-05T04:53:12;102254.50;;;2.34;100.00
54882;BME280;40775;51.448;4.742;2023-04-05T04:55:44;102260.59;;;2.34;100.00
54882;BME280;40775;51.448;4.742;2023-04-05T04:58:12;102255.88;;;2.29;100.00
54882;BME280;40775;51.448;4.742;2023-04-05T05:00:42;102251.69;;;2.31;100.00
54882;BME280;40775;51.448;4.742;2023-04-05T05:03:10;102270.72;;;2.31;100.00
54882;BME280;40775;51.448;4.742;2023-04-05T05:05:47;102261.03;;;2.29;100.00
54882;BME280;40775;51.448;4.742;2023-04-05T05:08:15;102257.09;;;2.22;100.00
54882;BME280;40775;51.448;4.742;2023-04-05T05:10:45;102262.50;;;2.25;100.00
54882;BME280;40775;51.448;4.742;2023-04-05T05:13:16;102255.16;;;2.20;100.00
54882;BME280;40775;51.448;4.742;2023-04-05T05:15:43;102265.28;;;2.16;100.00
54882;BME280;40775;51.448;4.742;2023-04-05T05:18:10;102262.56;;;2.15;100.00
54882;BME280;40775;51.448;4.742;2023-04-05T05:20:38;102270.03;;;2.22;100.00
54882;BME280;40775;51.448;4.742;2023-04-05T05:23:06;102268.66;;;2.15;100.00
54882;BME280;40775;51.448;4.742;2023-04-05T05:25:33;102266.97;;;2.16;100.00
54882;BME280;40775;51.448;4.742;2023-04-05T05:28:00;102269.03;;;2.20;100.00
54882;BME280;40775;51.448;4.742;2023-04-05T05:30:27;102273.81;;;2.15;100.00
54882;BME280;40775;51.448;4.742;2023-04-05T05:32:54;102277.03;;;2.23;100.00
54882;BME280;40775;51.448;4.742;2023-04-05T05:35:23;102270.56;;;2.18;100.00
54882;BME280;40775;51.448;4.742;2023-04-05T05:37:50;102271.47;;;2.18;100.00
54882;BME280;40775;51.448;4.742;2023-04-05T05:40:17;102276.25;;;2.24;100.00
54882;BME280;40775;51.448;4.742;2023-04-05T05:42:44;102275.91;;;2.20;100.00
54882;BME280;40775;51.448;4.742;2023-04-05T05:45:11;102281.78;;;2.40;100.00
54882;BME280;40775;51.448;4.742;2023-04-05T05:47:38;102274.34;;;6.38;100.00
54882;BME280;40775;51.448;4.742;2023-04-05T05:50:06;102262.25;;;8.57;100.00
54882;BME280;40775;51.448;4.742;2023-04-05T05:52:34;102248.09;;;9.79;100.00
54882;BME280;40775;51.448;4.742;2023-04-05T05:55:01;102244.31;;;10.50;100.00
54882;BME280;40775;51.448;4.742;2023-04-05T05:57:29;102251.16;;;10.88;100.00
54882;BME280;40775;51.448;4.742;2023-04-05T05:59:56;102253.19;;;11.16;100.00
54882;BME280;40775;51.448;4.742;2023-04-05T06:02:23;102246.16;;;11.37;100.00
54882;BME280;40775;51.448;4.742;2023-04-05T06:04:50;102247.75;;;11.55;100.00
54882;BME280;40775;51.448;4.742;2023-04-05T06:07:17;102252.78;;;11.72;100.00
54882;BME280;40775;51.448;4.742;2023-04-05T06:09:44;102248.09;;;11.86;100.00
54882;BME280;40775;51.448;4.742;2023-04-05T06:12:13;102253.81;;;11.98;100.00
54882;BME280;40775;51.448;4.742;2023-04-05T06:14:40;102254.28;;;12.11;100.00
54882;BME280;40775;51.448;4.742;2023-04-05T06:17:07;102256.38;;;12.21;100.00
54882;BME280;40775;51.448;4.742;2023-04-05T06:19:34;102256.75;;;12.31;100.00
54882;BME280;40775;51.448;4.742;2023-04-05T06:22:01;102261.53;;;12.42;100.00
54882;BME280;40775;51.448;4.742;2023-04-05T06:24:28;102252.22;;;12.51;100.00
54882;BME280;40775;51.448;4.742;2023-04-05T06:26:58;102254.34;;;12.61;100.00
54882;BME280;40775;51.448;4.742;2023-04-05T06:29:25;102257.19;;;12.67;100.00
54882;BME280;40775;51.448;4.742;2023-04-05T06:31:53;102258.22;;;12.73;100.00
54882;BME280;40775;51.448;4.742;2023-04-05T06:34:21;102255.75;;;12.77;100.00
54882;BME280;40775;51.448;4.742;2023-04-05T06:36:48;102262.09;;;12.84;100.00
54882;BME280;40775;51.448;4.742;2023-04-05T06:39:15;102264.84;;;12.87;100.00
54882;BME280;40775;51.448;4.742;2023-04-05T06:41:42;102257.16;;;12.93;100.00
54882;BME280;40775;51.448;4.742;2023-04-05T06:44:09;102271.38;;;12.98;100.00
54882;BME280;40775;51.448;4.742;2023-04-05T06:46:36;102255.66;;;13.01;100.00
54882;BME280;40775;51.448;4.742;2023-04-05T06:49:03;102255.75;;;13.04;100.00
54882;BME280;40775;51.448;4.742;2023-04-05T06:51:31;102269.09;;;13.09;100.00
54882;BME280;40775;51.448;4.742;2023-04-05T06:53:58;102262.19;;;13.12;100.00
54882;BME280;40775;51.448;4.742;2023-04-05T06:56:25;102259.66;;;13.15;100.00
54882;BME280;40775;51.448;4.742;2023-04-05T06:58:52;102260.66;;;13.17;100.00
54882;BME280;40775;51.448;4.742;2023-04-05T07:01:21;102264.28;;;13.21;100.00
54882;BME280;40775;51.448;4.742;2023-04-05T07:03:50;102252.91;;;13.23;100.00
54882;BME280;40775;51.448;4.742;2023-04-05T07:06:17;102251.31;;;13.28;100.00
54882;BME280;40775;51.448;4.742;2023-04-05T07:08:44;102253.19;;;13.33;100.00
54882;BME280;40775;51.448;4.742;2023-04-05T07:11:12;102247.06;;;13.34;100.00
54882;BME280;40775;51.448;4.742;2023-04-05T07:13:39;102256.88;;;13.38;100.00
54882;BME280;40775;51.448;4.742;2023-04-05T07:16:07;102249.91;;;13.40;100.00
54882;BME280;40775;51.448;4.742;2023-04-05T07:18:34;102256.13;;;13.42;100.00
54882;BME280;40775;51.448;4.742;2023-04-05T07:21:01;102249.19;;;13.44;100.00
54882;BME280;40775;51.448;4.742;2023-04-05T07:23:29;102243.94;;;13.45;100.00
54882;BME280;40775;51.448;4.742;2023-04-05T07:26:01;102252.81;;;13.47;100.00
54882;BME280;40775;51.448;4.742;2023-04-05T07:28:32;102245.88;;;13.51;100.00
54882;BME280;40775;51.448;4.742;2023-04-05T07:31:03;102242.44;;;13.53;100.00
54882;BME280;40775;51.448;4.742;2023-04-05T07:33:30;102238.13;;;13.57;100.00
54882;BME280;40775;51.448;4.742;2023-04-05T07:35:57;102245.19;;;13.58;100.00
54882;BME280;40775;51.448;4.742;2023-04-05T07:38:26;102235.50;;;13.57;100.00
54882;BME280;40775;51.448;4.742;2023-04-05T07:40:55;102238.22;;;13.60;100.00
54882;BME280;40775;51.448;4.742;2023-04-05T07:43:22;102240.88;;;13.60;100.00
54882;BME280;40775;51.448;4.742;2023-04-05T07:45:51;102242.75;;;13.64;100.00
54882;BME280;40775;51.448;4.742;2023-04-05T07:48:22;102243.63;;;13.65;100.00
54882;BME280;40775;51.448;4.742;2023-04-05T07:50:49;102244.56;;;13.67;100.00
54882;BME280;40775;51.448;4.742;2023-04-05T07:53:18;102240.19;;;13.67;100.00
54882;BME280;40775;51.448;4.742;2023-04-05T07:55:45;102247.44;;;13.73;100.00
54882;BME280;40775;51.448;4.742;2023-04-05T07:58:13;102241.38;;;13.77;100.00
54882;BME280;40775;51.448;4.742;2023-04-05T08:00:40;102242.22;;;13.76;100.00
54882;BME280;40775;51.448;4.742;2023-04-05T08:03:07;102243.94;;;13.74;100.00
54882;BME280;40775;51.448;4.742;2023-04-05T08:05:35;102237.00;;;13.77;100.00
54882;BME280;40775;51.448;4.742;2023-04-05T08:08:02;102237.09;;;13.80;100.00
54882;BME280;40775;51.448;4.742;2023-04-05T08:10:29;102237.03;;;13.79;100.00
54882;BME280;40775;51.448;4.742;2023-04-05T08:12:56;102230.94;;;13.81;100.00
54882;BME280;40775;51.448;4.742;2023-04-05T08:15:23;102227.47;;;13.82;100.00
54882;BME280;40775;51.448;4.742;2023-04-05T08:17:50;102234.53;;;13.83;100.00
54882;BME280;40775;51.448;4.742;2023-04-05T08:20:17;102227.47;;;13.82;100.00
54882;BME280;40775;51.448;4.742;2023-04-05T08:22:44;102237.16;;;13.83;100.00
54882;BME280;40775;51.448;4.742;2023-04-05T08:25:11;102231.81;;;13.80;100.00
54882;BME280;40775;51.448;4.742;2023-04-05T08:27:38;102235.38;;;13.82;100.00
54882;BME280;40775;51.448;4.742;2023-04-05T08:30:06;102232.81;;;13.85;100.00
54882;BME280;40775;51.448;4.742;2023-04-05T08:32:34;102233.69;;;13.84;100.00
54882;BME280;40775;51.448;4.742;2023-04-05T08:35:01;102233.81;;;13.89;100.00
54882;BME280;40775;51.448;4.742;2023-04-05T08:37:33;102227.81;;;13.95;100.00
54882;BME280;40775;51.448;4.742;2023-04-05T08:40:02;102219.88;;;13.95;100.00
54882;BME280;40775;51.448;4.742;2023-04-05T08:45:50;102229.50;;;13.92;100.00
54882;BME280;40775;51.448;4.742;2023-04-05T08:48:18;102221.63;;;13.94;100.00
54882;BME280;40775;51.448;4.742;2023-04-05T08:50:53;102225.13;;;13.93;100.00
54882;BME280;40775;51.448;4.742;2023-04-05T08:53:21;102211.91;;;13.93;100.00
54882;BME280;40775;51.448;4.742;2023-04-05T08:55:50;102216.31;;;13.92;100.00
54882;BME280;40775;51.448;4.742;2023-04-05T08:58:21;102213.66;;;13.92;100.00
54882;BME280;40775;51.448;4.742;2023-04-05T09:00:52;102215.44;;;13.93;100.00
54882;BME280;40775;51.448;4.742;2023-04-05T09:03:24;102217.25;;;13.95;100.00
54882;BME280;40775;51.448;4.742;2023-04-05T09:05:53;102211.97;;;13.95;100.00
54882;BME280;40775;51.448;4.742;2023-04-05T09:08:20;102215.44;;;13.93;100.00
54882;BME280;40775;51.448;4.742;2023-04-05T09:10:50;102217.41;;;13.99;100.00
54882;BME280;40775;51.448;4.742;2023-04-05T09:13:18;102212.97;;;13.98;100.00
54882;BME280;40775;51.448;4.742;2023-04-05T09:15:45;102213.09;;;14.03;100.00
54882;BME280;40775;51.448;4.742;2023-04-05T09:18:13;102214.88;;;14.04;100.00
54882;BME280;40775;51.448;4.742;2023-04-05T09:21:05;102216.75;;;14.08;100.00
54882;BME280;40775;51.448;4.742;2023-04-05T09:23:36;102218.53;;;14.09;100.00
54882;BME280;40775;51.448;4.742;2023-04-05T09:26:23;102216.75;;;14.08;100.00
54882;BME280;40775;51.448;4.742;2023-04-05T09:28:51;102217.59;;;14.07;100.00
54882;BME280;40775;51.448;4.742;2023-04-05T09:31:34;102218.47;;;14.06;100.00
54882;BME280;40775;51.448;4.742;2023-04-05T09:34:05;102214.06;;;14.06;100.00
54882;BME280;40775;51.448;4.742;2023-04-05T09:36:35;102210.69;;;14.12;100.00
54882;BME280;40775;51.448;4.742;2023-04-05T09:39:09;102210.78;;;14.15;100.00
54882;BME280;40775;51.448;4.742;2023-04-05T09:41:36;102201.91;;;14.13;100.00
54882;BME280;40775;51.448;4.742;2023-04-05T09:44:05;102204.56;;;14.13;100.00
54882;BME280;40775;51.448;4.742;2023-04-05T09:46:34;102205.41;;;14.12;100.00
54882;BME280;40775;51.448;4.742;2023-04-05T09:49:04;102205.47;;;14.13;100.00
54882;BME280;40775;51.448;4.742;2023-04-05T09:51:36;102200.13;;;14.12;100.00
54882;BME280;40775;51.448;4.742;2023-04-05T09:54:09;102196.69;;;14.14;100.00
54882;BME280;40775;51.448;4.742;2023-04-05T09:56:38;102198.47;;;14.15;100.00
54882;BME280;40775;51.448;4.742;2023-04-05T09:59:09;102201.03;;;14.12;100.00
54882;BME280;40775;51.448;4.742;2023-04-05T10:01:43;102198.44;;;14.14;100.00
54882;BME280;40775;51.448;4.742;2023-04-05T10:04:10;102186.19;;;14.17;100.00
54882;BME280;40775;51.448;4.742;2023-04-05T10:06:40;102192.38;;;14.18;100.00
54882;BME280;40775;51.448;4.742;2023-04-05T10:09:09;102179.84;;;14.11;100.00
54882;BME280;40775;51.448;4.742;2023-04-05T10:11:37;102175.50;;;14.13;100.00
54882;BME280;40775;51.448;4.742;2023-04-05T10:14:07;102176.38;;;14.12;100.00
54882;BME280;40775;51.448;4.742;2023-04-05T10:16:44;102178.13;;;14.11;100.00
54882;BME280;40775;51.448;4.742;2023-04-05T10:19:50;102180.66;;;14.08;100.00
54882;BME280;40775;51.448;4.742;2023-04-05T10:25:48;102179.94;;;14.14;100.00
54882;BME280;40775;51.448;4.742;2023-04-05T10:28:36;102177.38;;;14.17;100.00
54882;BME280;40775;51.448;4.742;2023-04-05T10:31:24;102171.09;;;14.12;100.00
54882;BME280;40775;51.448;4.742;2023-04-05T10:34:06;102172.06;;;14.15;100.00
54882;BME280;40775;51.448;4.742;2023-04-05T10:37:01;102174.88;;;14.23;100.00
54882;BME280;40775;51.448;4.742;2023-04-05T10:39:43;102170.47;;;14.22;100.00
54882;BME280;40775;51.448;4.742;2023-04-05T10:45:01;102169.38;;;14.14;100.00
54882;BME280;40775;51.448;4.742;2023-04-05T10:47:41;102163.31;;;14.18;100.00
54882;BME280;40775;51.448;4.742;2023-04-05T10:50:17;102168.75;;;14.24;100.00
54882;BME280;40775;51.448;4.742;2023-04-05T10:52:46;102160.03;;;14.27;100.00
54882;BME280;40775;51.448;4.742;2023-04-05T10:55:15;102165.34;;;14.27;100.00
54882;BME280;40775;51.448;4.742;2023-04-05T10:57:44;102161.88;;;14.29;100.00
54882;BME280;40775;51.448;4.742;2023-04-05T11:00:14;102160.19;;;14.33;100.00
54882;BME280;40775;51.448;4.742;2023-04-05T11:02:42;102158.41;;;14.32;100.00
54882;BME280;40775;51.448;4.742;2023-04-05T11:05:30;102151.31;;;14.29;100.00
54882;BME280;40775;51.448;4.742;2023-04-05T11:08:07;102148.81;;;14.35;100.00
54882;BME280;40775;51.448;4.742;2023-04-05T11:10:37;102153.28;;;14.38;100.00
54882;BME280;40775;51.448;4.742;2023-04-05T11:13:07;102155.72;;;14.30;100.00
54882;BME280;40775;51.448;4.742;2023-04-05T11:15:35;102145.06;;;14.26;100.00
54882;BME280;40775;51.448;4.742;2023-04-05T11:20:53;102138.03;;;14.26;100.00
54882;BME280;40775;51.448;4.742;2023-04-05T11:23:31;102145.13;;;14.29;100.00
54882;BME280;40775;51.448;4.742;2023-04-05T11:26:05;102141.63;;;14.30;100.00
54882;BME280;40775;51.448;4.742;2023-04-05T11:28:37;102141.59;;;14.28;100.00
54882;BME280;40775;51.448;4.742;2023-04-05T11:31:16;102136.31;;;14.28;100.00
54882;BME280;40775;51.448;4.742;2023-04-05T11:33:57;102136.22;;;14.25;100.00
54882;BME280;40775;51.448;4.742;2023-04-05T11:36:52;102125.78;;;14.30;100.00
54882;BME280;40775;51.448;4.742;2023-04-05T11:42:01;102125.78;;;14.30;100.00
54882;BME280;40775;51.448;4.742;2023-04-05T11:44:45;102118.84;;;14.35;100.00
54882;BME280;40775;51.448;4.742;2023-04-05T11:47:13;102123.28;;;14.36;100.00
54882;BME280;40775;51.448;4.742;2023-04-05T11:49:43;102115.31;;;14.34;100.00
54882;BME280;40775;51.448;4.742;2023-04-05T11:52:20;102112.66;;;14.33;100.00
54882;BME280;40775;51.448;4.742;2023-04-05T11:54:47;102113.25;;;14.22;100.00
54882;BME280;40775;51.448;4.742;2023-04-05T11:57:22;102112.28;;;14.19;100.00
54882;BME280;40775;51.448;4.742;2023-04-05T11:59:51;102100.16;;;14.26;100.00
54882;BME280;40775;51.448;4.742;2023-04-05T12:02:20;102100.06;;;14.24;100.00
54882;BME280;40775;51.448;4.742;2023-04-05T12:04:54;102104.56;;;14.27;100.00
54882;BME280;40775;51.448;4.742;2023-04-05T12:07:28;102099.41;;;14.31;100.00
54882;BME280;40775;51.448;4.742;2023-04-05T12:10:03;102094.19;;;14.34;100.00
54882;BME280;40775;51.448;4.742;2023-04-05T12:12:39;102087.06;;;14.30;100.00
54882;BME280;40775;51.448;4.742;2023-04-05T12:15:08;102095.91;;;14.32;100.00
54882;BME280;40775;51.448;4.742;2023-04-05T12:17:47;102080.13;;;14.35;100.00
54882;BME280;40775;51.448;4.742;2023-04-05T12:20:23;102080.28;;;14.41;100.00
54882;BME280;40775;51.448;4.742;2023-04-05T12:22:55;102083.97;;;14.48;100.00
54882;BME280;40775;51.448;4.742;2023-04-05T12:25:23;102080.63;;;14.53;100.00
54882;BME280;40775;51.448;4.742;2023-04-05T12:27:50;102078.38;;;14.72;100.00
54882;BME280;40775;51.448;4.742;2023-04-05T12:30:20;102084.47;;;14.68;100.00
54882;BME280;40775;51.448;4.742;2023-04-05T12:32:55;102074.56;;;14.59;100.00
54882;BME280;40775;51.448;4.742;2023-04-05T12:35:27;102069.56;;;14.71;100.00
54882;BME280;40775;51.448;4.742;2023-04-05T12:38:00;102067.94;;;14.78;100.00
54882;BME280;40775;51.448;4.742;2023-04-05T12:40:28;102045.25;;;14.88;100.00
54882;BME280;40775;51.448;4.742;2023-04-05T12:43:06;102049.75;;;14.92;100.00
54882;BME280;40775;51.448;4.742;2023-04-05T12:45:33;102047.59;;;14.74;100.00
54882;BME280;40775;51.448;4.742;2023-04-05T12:48:12;102053.66;;;14.70;100.00
54882;BME280;40775;51.448;4.742;2023-04-05T12:50:44;102054.66;;;14.75;100.00
54882;BME280;40775;51.448;4.742;2023-04-05T12:53:23;102053.66;;;14.70;100.00
54882;BME280;40775;51.448;4.742;2023-04-05T12:55:56;102051.00;;;14.68;100.00
54882;BME280;40775;51.448;4.742;2023-04-05T12:58:33;102052.81;;;14.71;100.00
54882;BME280;40775;51.448;4.742;2023-04-05T13:01:01;102051.88;;;14.69;100.00
54882;BME280;40775;51.448;4.742;2023-04-05T13:03:28;102050.03;;;14.65;100.00
54882;BME280;40775;51.448;4.742;2023-04-05T13:05:56;102041.22;;;14.64;100.00
54882;BME280;40775;51.448;4.742;2023-04-05T13:08:24;102041.28;;;14.67;100.00
54882;BME280;40775;51.448;4.742;2023-04-05T13:10:53;102033.41;;;14.70;100.00
54882;BME280;40775;51.448;4.742;2023-04-05T13:13:23;102030.75;;;14.69;100.00
54882;BME280;40775;51.448;4.742;2023-04-05T13:15:51;102028.09;;;14.69;100.00
54882;BME280;40775;51.448;4.742;2023-04-05T13:18:18;102020.28;;;14.75;100.00
54882;BME280;40775;51.448;4.742;2023-04-05T13:20:45;102020.44;;;14.81;100.00
54882;BME280;40775;51.448;4.742;2023-04-05T13:23:13;102017.88;;;14.84;100.00
54882;BME280;40775;51.448;4.742;2023-04-05T13:25:42;102019.78;;;14.91;100.00